Time,TemperatureF,DewpointF,PressureIn,WindDirection,WindDirectionDegrees,WindSpeedMPH,WindSpeedGustMPH,Humidity,HourlyPrecipIn,Conditions,Clouds,dailyrainin,SoftwareType,DateUTC
2013-08-16 00:00:00,58.9,55.0,30.08,SW,226,6.0,6.0,87,0.00,,,0.00,VWS V15.00,2013-08-16 05:00:00,
2013-08-16 00:03:00,59.6,56.4,30.09,SW,226,5.0,6.0,89,0.00,,SCT110,0.00,VWS V14.01,2013-08-16 05:03:00,
2013-08-16 00:08:00,59.5,56.3,30.09,SW,226,5.0,5.0,89,0.00,,SCT110,0.00,VWS V14.01,2013-08-16 05:08:00,
2013-08-16 00:13:00,59.5,56.3,30.09,SW,226,4.0,6.0,89,0.00,,SCT110,0.00,VWS V14.01,2013-08-16 05:13:00,
2013-08-16 00:15:00,58.9,55.7,30.08,SW,227,5.0,6.0,89,0.00,,,0.00,VWS V15.00,2013-08-16 05:15:00,
2013-08-16 00:20:00,59.5,56.3,30.09,SW,226,4.0,4.0,89,0.00,,SCT110,0.00,VWS V14.01,2013-08-16 05:20:00,
2013-08-16 00:25:00,59.2,55.7,30.09,SW,226,3.0,4.0,88,0.00,,SCT110,0.00,VWS V14.01,2013-08-16 05:25:00,
2013-08-16 00:30:00,58.9,55.4,30.09,SW,226,4.0,4.0,88,0.00,,SCT110,0.00,VWS V14.01,2013-08-16 05:30:00,
2013-08-16 00:35:00,58.6,55.1,30.10,SW,226,4.0,4.0,88,0.00,,SCT110,0.00,VWS V14.01,2013-08-16 05:35:00,
2013-08-16 00:40:00,58.4,55.2,30.10,SW,226,4.0,5.0,89,0.00,,SCT110,0.00,VWS V14.01,2013-08-16 05:40:00,
2013-08-16 00:45:00,58.3,55.1,30.10,SW,226,4.0,5.0,89,0.00,,SCT110,0.00,VWS V14.01,2013-08-16 05:45:00,
2013-08-16 00:50:00,58.3,55.4,30.10,SW,226,4.0,4.0,90,0.00,,SCT110,0.00,VWS V14.01,2013-08-16 05:50:00,
2013-08-16 00:55:00,58.3,55.7,30.10,SW,226,4.0,5.0,91,0.00,,SCT110,0.00,VWS V14.01,2013-08-16 05:55:00,
2013-08-16 01:00:00,58.3,55.4,30.10,SW,226,3.0,5.0,90,0.00,,SCT110,0.00,VWS V14.01,2013-08-16 06:00:00,
2013-08-16 01:05:00,58.3,55.7,30.10,SW,226,4.0,4.0,91,0.00,,SCT110,0.00,VWS V14.01,2013-08-16 06:05:00,
2013-08-16 01:10:00,58.1,55.2,30.10,SW,226,4.0,5.0,90,0.00,,SCT110,0.00,VWS V14.01,2013-08-16 06:10:00,
2013-08-16 01:15:00,58.1,55.2,30.10,SW,226,4.0,5.0,90,0.00,,SCT110,0.00,VWS V14.01,2013-08-16 06:15:00,
2013-08-16 01:20:00,58.0,55.4,30.09,SW,226,3.0,4.0,91,0.00,,SCT110,0.00,VWS V14.01,2013-08-16 06:20:00,
2013-08-16 01:25:00,58.0,55.4,30.09,SW,226,3.0,5.0,91,0.00,,SCT110,0.00,VWS V14.01,2013-08-16 06:25:00,
2013-08-16 01:30:00,58.0,55.4,30.09,SW,226,4.0,5.0,91,0.00,,SCT110,0.00,VWS V14.01,2013-08-16 06:30:00,
2013-08-16 01:35:00,57.8,54.9,30.09,SW,226,4.0,5.0,90,0.00,,SCT110,0.00,VWS V14.01,2013-08-16 06:35:00,
2013-08-16 01:40:00,57.8,55.2,30.09,SW,226,5.0,5.0,91,0.00,,SCT100,0.00,VWS V14.01,2013-08-16 06:40:00,
2013-08-16 01:45:00,57.6,55.6,30.09,SW,226,4.0,5.0,93,0.00,,SCT100,0.00,VWS V14.01,2013-08-16 06:45:00,
2013-08-16 01:50:00,58.0,55.4,30.09,SW,226,4.0,5.0,91,0.00,,SCT100,0.00,VWS V14.01,2013-08-16 06:50:00,
2013-08-16 01:56:00,58.1,55.5,30.09,SW,226,4.0,5.0,91,0.00,,SCT100,0.00,VWS V14.01,2013-08-16 06:56:00,
2013-08-16 02:00:00,58.3,55.7,30.10,SW,226,4.0,5.0,91,0.00,,,0.00,VWS V15.00,2013-08-16 07:00:00,
2013-08-16 02:01:00,58.3,55.4,30.09,SW,226,4.0,5.0,90,0.00,,SCT110,0.00,VWS V14.01,2013-08-16 07:01:00,
2013-08-16 02:06:00,58.3,55.4,30.09,SW,226,4.0,5.0,90,0.00,,SCT110,0.00,VWS V14.01,2013-08-16 07:06:00,
2013-08-16 02:11:00,58.1,55.2,30.09,SW,226,4.0,5.0,90,0.00,,SCT110,0.00,VWS V14.01,2013-08-16 07:11:00,
2013-08-16 02:15:00,58.0,55.4,30.09,SW,226,4.0,5.0,91,0.00,,,0.00,VWS V15.00,2013-08-16 07:15:00,
2013-08-16 02:16:00,58.1,55.2,30.09,SW,226,4.0,5.0,90,0.00,,SCT110,0.00,VWS V14.01,2013-08-16 07:16:00,
2013-08-16 02:21:00,58.0,55.1,30.09,SW,226,4.0,4.0,90,0.00,,SCT110,0.00,VWS V14.01,2013-08-16 07:21:00,
2013-08-16 02:26:00,57.6,54.7,30.09,SW,226,5.0,5.0,90,0.00,,SCT110,0.00,VWS V14.01,2013-08-16 07:26:00,
2013-08-16 02:30:00,57.8,54.9,30.09,SW,226,4.0,5.0,90,0.00,,,0.00,VWS V15.00,2013-08-16 07:30:00,
2013-08-16 02:31:00,57.2,54.0,30.09,SW,226,5.0,6.0,89,0.00,,SCT110,0.00,VWS V14.01,2013-08-16 07:31:00,
2013-08-16 02:36:00,57.0,54.1,30.09,SW,226,5.0,6.0,90,0.00,,SCT110,0.00,VWS V14.01,2013-08-16 07:36:00,
2013-08-16 02:41:00,56.9,54.3,30.09,SW,226,5.0,6.0,91,0.00,,CLR,0.00,VWS V14.01,2013-08-16 07:41:00,
2013-08-16 02:45:00,57.8,55.2,30.09,SW,226,5.0,5.0,91,0.00,,,0.00,VWS V15.00,2013-08-16 07:45:00,
2013-08-16 02:46:00,56.9,54.6,30.09,SW,226,5.0,6.0,92,0.00,,CLR,0.00,VWS V14.01,2013-08-16 07:46:00,
2013-08-16 02:51:00,56.7,54.4,30.09,SW,226,4.0,5.0,92,0.00,,CLR,0.00,VWS V14.01,2013-08-16 07:51:00,
2013-08-16 02:56:00,56.6,54.3,30.09,SW,226,4.0,5.0,92,0.00,,CLR,0.00,VWS V14.01,2013-08-16 07:56:00,
2013-08-16 03:00:00,58.3,55.4,30.09,SW,226,4.0,5.0,90,0.00,,,0.00,VWS V15.00,2013-08-16 08:00:00,
2013-08-16 03:01:00,56.5,54.2,30.09,SW,226,4.0,5.0,92,0.00,,CLR,0.00,VWS V14.01,2013-08-16 08:01:00,
2013-08-16 03:06:00,56.3,54.0,30.09,SW,226,5.0,5.0,92,0.00,,CLR,0.00,VWS V14.01,2013-08-16 08:06:00,
2013-08-16 03:11:00,56.0,53.7,30.09,SW,226,4.0,5.0,92,0.00,,CLR,0.00,VWS V14.01,2013-08-16 08:11:00,
2013-08-16 03:15:00,58.0,55.1,30.09,SW,226,3.0,5.0,90,0.00,,,0.00,VWS V15.00,2013-08-16 08:15:00,
2013-08-16 03:16:00,55.9,53.6,30.09,SW,226,4.0,5.0,92,0.00,,CLR,0.00,VWS V14.01,2013-08-16 08:16:00,
2013-08-16 03:21:00,55.9,53.6,30.09,SW,226,3.0,4.0,92,0.00,,CLR,0.00,VWS V14.01,2013-08-16 08:21:00,
2013-08-16 03:26:00,55.9,53.6,30.09,SW,226,4.0,4.0,92,0.00,,CLR,0.00,VWS V14.01,2013-08-16 08:26:00,
2013-08-16 03:30:00,57.0,54.1,30.09,SW,226,5.0,6.0,90,0.00,,,0.00,VWS V15.00,2013-08-16 08:30:00,
2013-08-16 03:31:00,55.7,53.4,30.09,SW,226,3.0,4.0,92,0.00,,CLR,0.00,VWS V14.01,2013-08-16 08:31:00,
2013-08-16 03:36:00,55.6,53.3,30.09,SW,226,4.0,5.0,92,0.00,,CLR,0.00,VWS V14.01,2013-08-16 08:36:00,
2013-08-16 03:41:00,55.3,53.0,30.09,SW,226,5.0,5.0,92,0.00,,SCT110,0.00,VWS V14.01,2013-08-16 08:41:00,
2013-08-16 03:45:00,56.7,54.4,30.09,SW,226,4.0,6.0,92,0.00,,,0.00,VWS V15.00,2013-08-16 08:45:00,
2013-08-16 03:46:00,55.0,52.4,30.09,SW,226,5.0,5.0,91,0.00,,SCT110,0.00,VWS V14.01,2013-08-16 08:46:00,
2013-08-16 03:51:00,54.7,52.1,30.10,SW,226,4.0,5.0,91,0.00,,SCT100,0.00,VWS V14.01,2013-08-16 08:51:00,
2013-08-16 03:56:00,54.5,52.2,30.10,SW,226,5.0,5.0,92,0.00,,SCT100,0.00,VWS V14.01,2013-08-16 08:56:00,
2013-08-16 04:00:00,56.5,54.2,30.09,SW,226,5.0,5.0,92,0.00,,,0.00,VWS V15.00,2013-08-16 09:00:00,
2013-08-16 04:01:00,54.4,52.1,30.10,SW,226,5.0,5.0,92,0.00,,SCT100,0.00,VWS V14.01,2013-08-16 09:01:00,
2013-08-16 04:06:00,54.5,52.5,30.10,SW,226,4.0,4.0,93,0.00,,SCT100,0.00,VWS V14.01,2013-08-16 09:06:00,
2013-08-16 04:11:00,54.7,52.7,30.10,SW,226,3.0,5.0,93,0.00,,SCT100,0.00,VWS V14.01,2013-08-16 09:11:00,
2013-08-16 04:15:00,55.9,53.6,30.09,SW,226,4.0,5.0,92,0.00,,,0.00,VWS V15.00,2013-08-16 09:15:00,
2013-08-16 04:16:00,54.5,52.5,30.10,SW,226,2.0,5.0,93,0.00,,SCT100,0.00,VWS V14.01,2013-08-16 09:16:00,
2013-08-16 04:21:00,54.5,52.8,30.10,SW,226,3.0,4.0,94,0.00,,SCT100,0.00,VWS V14.01,2013-08-16 09:21:00,
2013-08-16 04:26:00,54.7,53.0,30.10,SW,226,4.0,4.0,94,0.00,,SCT100,0.00,VWS V14.01,2013-08-16 09:26:00,
2013-08-16 04:30:00,55.6,53.3,30.09,SW,226,4.0,4.0,92,0.00,,,0.00,VWS V15.00,2013-08-16 09:30:00,
2013-08-16 04:31:00,54.4,52.7,30.10,SW,226,5.0,6.0,94,0.00,,SCT100,0.00,VWS V14.01,2013-08-16 09:31:00,
2013-08-16 04:37:00,53.8,51.8,30.10,SW,226,5.0,6.0,93,0.00,,SCT100,0.00,VWS V14.01,2013-08-16 09:37:00,
2013-08-16 04:42:00,53.3,51.6,30.10,SW,226,5.0,6.0,94,0.00,,SCT100,0.00,VWS V14.01,2013-08-16 09:42:00,
2013-08-16 04:45:00,54.8,52.2,30.10,SW,226,4.0,5.0,91,0.00,,,0.00,VWS V15.00,2013-08-16 09:45:00,
2013-08-16 04:47:00,53.6,52.2,30.10,SW,226,4.0,6.0,95,0.00,,SCT100,0.00,VWS V14.01,2013-08-16 09:47:00,
2013-08-16 04:52:00,53.6,51.9,30.10,SW,226,3.0,4.0,94,0.00,,,0.00,VWS V14.01,2013-08-16 09:52:00,
2013-08-16 04:57:00,53.6,51.9,30.10,SW,226,3.0,4.0,94,0.00,,,0.00,VWS V14.01,2013-08-16 09:57:00,
2013-08-16 05:00:00,54.4,52.1,30.10,SW,226,4.0,5.0,92,0.00,,,0.00,VWS V15.00,2013-08-16 10:00:00,
2013-08-16 05:02:00,53.6,51.9,30.10,SW,226,3.0,4.0,94,0.00,,,0.00,VWS V14.01,2013-08-16 10:02:00,
2013-08-16 05:07:00,53.5,51.8,30.10,SW,226,5.0,5.0,94,0.00,,,0.00,VWS V14.01,2013-08-16 10:07:00,
2013-08-16 05:12:00,53.3,51.6,30.10,SW,226,4.0,5.0,94,0.00,,,0.00,VWS V14.01,2013-08-16 10:12:00,
2013-08-16 05:15:00,54.5,52.5,30.10,SW,226,3.0,5.0,93,0.00,,,0.00,VWS V15.00,2013-08-16 10:15:00,
2013-08-16 05:17:00,53.2,51.2,30.10,SW,226,5.0,5.0,93,0.00,,,0.00,VWS V14.01,2013-08-16 10:17:00,
2013-08-16 05:22:00,53.1,51.4,30.11,SW,226,4.0,5.0,94,0.00,,,0.00,VWS V14.01,2013-08-16 10:22:00,
2013-08-16 05:27:00,52.9,51.2,30.11,SW,226,5.0,5.0,94,0.00,,,0.00,VWS V14.01,2013-08-16 10:27:00,
2013-08-16 05:30:00,54.1,52.1,30.10,SW,226,5.0,6.0,93,0.00,,,0.00,VWS V15.00,2013-08-16 10:30:00,
2013-08-16 05:32:00,52.9,51.2,30.11,SW,226,3.0,5.0,94,0.00,,,0.00,VWS V14.01,2013-08-16 10:32:00,
2013-08-16 05:37:00,52.9,51.2,30.11,SW,226,4.0,4.0,94,0.00,,,0.00,VWS V14.01,2013-08-16 10:37:00,
2013-08-16 05:42:00,52.9,51.2,30.11,SW,226,4.0,5.0,94,0.00,,SCT100,0.00,VWS V14.01,2013-08-16 10:42:00,
2013-08-16 05:45:00,53.6,51.9,30.10,SW,226,4.0,6.0,94,0.00,,,0.00,VWS V15.00,2013-08-16 10:45:00,
2013-08-16 05:47:00,52.8,51.1,30.11,SW,226,4.0,5.0,94,0.00,,SCT100,0.00,VWS V14.01,2013-08-16 10:47:00,
2013-08-16 05:52:00,52.5,50.8,30.11,SW,226,5.0,6.0,94,0.00,,SCT100,0.00,VWS V14.01,2013-08-16 10:52:00,
2013-08-16 05:57:00,52.2,50.5,30.11,SW,226,5.0,6.0,94,0.00,,SCT100,0.00,VWS V14.01,2013-08-16 10:57:00,
2013-08-16 06:00:00,53.5,51.8,30.10,SW,226,3.0,4.0,94,0.00,,,0.00,VWS V15.00,2013-08-16 11:00:00,
2013-08-16 06:02:00,52.0,50.3,30.11,SW,226,4.0,6.0,94,0.00,,SCT100,0.00,VWS V14.01,2013-08-16 11:02:00,
2013-08-16 06:07:00,52.0,50.6,30.11,SW,226,4.0,5.0,95,0.00,,SCT100,0.00,VWS V14.01,2013-08-16 11:07:00,
2013-08-16 06:12:00,51.9,50.5,30.11,SW,226,5.0,5.0,95,0.00,,SCT100,0.00,VWS V14.01,2013-08-16 11:12:00,
2013-08-16 06:15:00,53.1,51.1,30.11,SW,226,5.0,5.0,93,0.00,,,0.00,VWS V15.00,2013-08-16 11:15:00,
2013-08-16 06:17:00,51.7,50.0,30.11,SW,226,5.0,6.0,94,0.00,,SCT100,0.00,VWS V14.01,2013-08-16 11:17:00,
2013-08-16 06:22:00,51.6,49.9,30.12,SW,226,5.0,5.0,94,0.00,,SCT100,0.00,VWS V14.01,2013-08-16 11:22:00,
2013-08-16 06:27:00,51.4,49.7,30.12,SW,226,5.0,5.0,94,0.00,,SCT100,0.00,VWS V14.01,2013-08-16 11:27:00,
2013-08-16 06:30:00,52.9,51.2,30.11,SW,226,4.0,5.0,94,0.00,,,0.00,VWS V15.00,2013-08-16 11:30:00,
2013-08-16 06:32:00,51.4,50.0,30.12,SW,226,5.0,6.0,95,0.00,,SCT100,0.00,VWS V14.01,2013-08-16 11:32:00,
2013-08-16 06:37:00,51.6,50.2,30.12,SW,226,5.0,6.0,95,0.00,,SCT100,0.00,VWS V14.01,2013-08-16 11:37:00,
2013-08-16 06:42:00,51.4,50.0,30.12,SW,226,5.0,6.0,95,0.00,,,0.00,VWS V14.01,2013-08-16 11:42:00,
2013-08-16 06:45:00,52.6,50.9,30.11,SW,226,5.0,5.0,94,0.00,,,0.00,VWS V15.00,2013-08-16 11:45:00,
2013-08-16 06:47:00,51.4,50.0,30.12,SW,226,6.0,6.0,95,0.00,,,0.00,VWS V14.01,2013-08-16 11:47:00,
2013-08-16 06:52:00,51.4,50.0,30.13,SW,226,5.0,6.0,95,0.00,,,0.00,VWS V14.01,2013-08-16 11:52:00,
2013-08-16 06:57:00,51.4,50.0,30.13,SW,226,5.0,6.0,95,0.00,,,0.00,VWS V14.01,2013-08-16 11:57:00,
2013-08-16 07:00:00,52.0,50.3,30.11,SW,226,5.0,6.0,94,0.00,,,0.00,VWS V15.00,2013-08-16 12:00:00,
2013-08-16 07:02:00,51.6,50.2,30.13,SW,226,4.0,6.0,95,0.00,,,0.00,VWS V14.01,2013-08-16 12:02:00,
2013-08-16 07:07:00,52.0,50.6,30.13,SW,226,5.0,6.0,95,0.00,,,0.00,VWS V14.01,2013-08-16 12:07:00,
2013-08-16 07:12:00,52.5,51.4,30.13,SW,226,4.0,6.0,96,0.00,,,0.00,VWS V14.01,2013-08-16 12:12:00,
2013-08-16 07:15:00,51.7,50.0,30.12,SW,226,4.0,6.0,94,0.00,,,0.00,VWS V15.00,2013-08-16 12:15:00,
2013-08-16 07:17:00,52.6,51.2,30.13,SW,226,4.0,6.0,95,0.00,,,0.00,VWS V14.01,2013-08-16 12:17:00,
2013-08-16 07:22:00,52.9,51.8,30.14,SW,226,4.0,5.0,96,0.00,,,0.00,VWS V14.01,2013-08-16 12:22:00,
2013-08-16 07:28:00,53.2,51.8,30.14,SW,226,4.0,5.0,95,0.00,,,0.00,VWS V14.01,2013-08-16 12:28:00,
2013-08-16 07:30:00,51.6,50.2,30.12,SW,226,6.0,6.0,95,0.00,,,0.00,VWS V15.00,2013-08-16 12:30:00,
2013-08-16 07:33:00,53.6,52.5,30.14,SW,226,4.0,5.0,96,0.00,,,0.00,VWS V14.01,2013-08-16 12:33:00,
2013-08-16 07:38:00,54.2,53.1,30.14,SW,226,4.0,5.0,96,0.00,,,0.00,VWS V14.01,2013-08-16 12:38:00,
2013-08-16 07:43:00,54.7,53.6,30.14,SW,226,4.0,5.0,96,0.00,,CLR,0.00,VWS V14.01,2013-08-16 12:43:00,
2013-08-16 07:45:00,51.4,50.0,30.13,SW,226,6.0,6.0,95,0.00,,,0.00,VWS V15.00,2013-08-16 12:45:00,
2013-08-16 07:48:00,54.8,53.4,30.14,SW,226,2.0,5.0,95,0.00,,CLR,0.00,VWS V14.01,2013-08-16 12:48:00,
2013-08-16 07:53:00,55.3,54.2,30.14,SW,226,1.0,4.0,96,0.00,,CLR,0.00,VWS V14.01,2013-08-16 12:53:00,
2013-08-16 07:58:00,55.7,54.6,30.14,SW,226,1.0,4.0,96,0.00,,CLR,0.00,VWS V14.01,2013-08-16 12:58:00,
2013-08-16 08:00:00,51.7,50.3,30.13,SW,226,4.0,6.0,95,0.00,,,0.00,VWS V15.00,2013-08-16 13:00:00,
2013-08-16 08:03:00,56.0,54.6,30.14,SW,226,3.0,4.0,95,0.00,,CLR,0.00,VWS V14.01,2013-08-16 13:03:00,
2013-08-16 08:08:00,56.5,55.1,30.14,SW,226,3.0,3.0,95,0.00,,CLR,0.00,VWS V14.01,2013-08-16 13:08:00,
2013-08-16 08:13:00,56.7,55.3,30.14,SW,226,0.0,3.0,95,0.00,,CLR,0.00,VWS V14.01,2013-08-16 13:13:00,
2013-08-16 08:15:00,52.8,51.7,30.14,SW,226,4.0,6.0,96,0.00,,,0.00,VWS V15.00,2013-08-16 13:15:00,
2013-08-16 08:18:00,57.2,55.8,30.14,SW,226,4.0,5.0,95,0.00,,CLR,0.00,VWS V14.01,2013-08-16 13:18:00,
2013-08-16 08:23:00,57.8,56.4,30.15,SW,226,3.0,5.0,95,0.00,,CLR,0.00,VWS V14.01,2013-08-16 13:23:00,
2013-08-16 08:28:00,58.3,56.9,30.15,SW,226,3.0,5.0,95,0.00,,CLR,0.00,VWS V14.01,2013-08-16 13:28:00,
2013-08-16 08:30:00,53.8,52.7,30.14,SW,226,5.0,5.0,96,0.00,,,0.00,VWS V15.00,2013-08-16 13:30:00,
2013-08-16 08:33:00,59.3,57.9,30.15,SW,226,2.0,5.0,95,0.00,,CLR,0.00,VWS V14.01,2013-08-16 13:33:00,
2013-08-16 08:38:00,60.1,58.4,30.15,SW,226,3.0,4.0,94,0.00,,CLR,0.00,VWS V14.01,2013-08-16 13:38:00,
2013-08-16 08:43:00,60.9,58.9,30.15,SW,226,1.0,4.0,93,0.00,,CLR,0.00,VWS V14.01,2013-08-16 13:43:00,
2013-08-16 08:45:00,55.0,53.6,30.14,SW,226,3.0,5.0,95,0.00,,OVC016,0.00,VWS V15.00,2013-08-16 13:45:00,
2013-08-16 08:48:00,61.5,58.8,30.15,SW,226,2.0,4.0,91,0.00,,CLR,0.00,VWS V14.01,2013-08-16 13:48:00,
2013-08-16 08:53:00,62.1,58.5,30.15,SW,226,2.0,2.0,88,0.00,,CLR,0.00,VWS V14.01,2013-08-16 13:53:00,
2013-08-16 08:58:00,62.7,58.5,30.15,SW,226,0.0,3.0,86,0.00,,CLR,0.00,VWS V14.01,2013-08-16 13:58:00,
2013-08-16 09:00:00,56.2,54.8,30.14,SW,226,1.0,4.0,95,0.00,,,0.00,VWS V15.00,2013-08-16 14:00:00,
2013-08-16 09:03:00,63.2,58.6,30.15,SW,226,0.0,3.0,85,0.00,,CLR,0.00,VWS V14.01,2013-08-16 14:03:00,
2013-08-16 09:08:00,63.7,59.4,30.15,SW,226,0.0,0.0,86,0.00,,CLR,0.00,VWS V14.01,2013-08-16 14:08:00,
2013-08-16 09:13:00,64.2,59.9,30.15,SW,226,0.0,3.0,86,0.00,,CLR,0.00,VWS V14.01,2013-08-16 14:13:00,
2013-08-16 09:15:00,57.3,55.9,30.15,SW,226,3.0,5.0,95,0.00,,,0.00,VWS V15.00,2013-08-16 14:15:00,
2013-08-16 09:18:00,64.5,59.6,30.15,SW,226,1.0,3.0,84,0.00,,CLR,0.00,VWS V14.01,2013-08-16 14:18:00,
2013-08-16 09:23:00,64.8,57.4,30.15,SW,226,3.0,3.0,77,0.00,,CLR,0.00,VWS V14.01,2013-08-16 14:23:00,
2013-08-16 09:28:00,65.5,58.1,30.15,SW,226,2.0,3.0,77,0.00,,CLR,0.00,VWS V14.01,2013-08-16 14:28:00,
2013-08-16 09:30:00,59.5,58.1,30.15,SW,226,3.0,5.0,95,0.00,,,0.00,VWS V15.00,2013-08-16 14:30:00,
2013-08-16 09:33:00,66.1,58.3,30.15,SW,226,3.0,3.0,76,0.00,,CLR,0.00,VWS V14.01,2013-08-16 14:33:00,
2013-08-16 09:39:00,66.9,58.3,30.15,SW,226,2.0,4.0,74,0.00,,CLR,0.00,VWS V14.01,2013-08-16 14:39:00,
2013-08-16 09:44:00,67.8,59.2,30.15,SW,226,2.0,4.0,74,0.00,,CLR,0.00,VWS V14.01,2013-08-16 14:44:00,
2013-08-16 09:45:00,61.6,59.0,30.15,SW,226,1.0,4.0,91,0.00,,,0.00,VWS V15.00,2013-08-16 14:45:00,
2013-08-16 09:49:00,68.6,60.4,30.15,SW,226,3.0,4.0,75,0.00,,CLR,0.00,VWS V14.01,2013-08-16 14:49:00,
2013-08-16 09:54:00,69.3,59.5,30.15,SW,226,3.0,3.0,71,0.00,,CLR,0.00,VWS V14.01,2013-08-16 14:54:00,
2013-08-16 09:59:00,70.3,59.7,30.15,SW,226,0.0,3.0,69,0.00,,CLR,0.00,VWS V14.01,2013-08-16 14:59:00,
2013-08-16 10:00:00,63.2,59.0,30.15,SW,226,0.0,3.0,86,0.00,,,0.00,VWS V15.00,2013-08-16 15:00:00,
2013-08-16 10:04:00,71.1,60.4,30.14,SW,226,1.0,3.0,69,0.00,,CLR,0.00,VWS V14.01,2013-08-16 15:04:00,
2013-08-16 10:09:00,71.5,59.6,30.14,SW,226,0.0,3.0,66,0.00,,CLR,0.00,VWS V14.01,2013-08-16 15:09:00,
2013-08-16 10:14:00,72.3,60.3,30.14,SW,226,0.0,3.0,66,0.00,,CLR,0.00,VWS V14.01,2013-08-16 15:14:00,
2013-08-16 10:15:00,64.5,58.5,30.15,SW,226,2.0,3.0,81,0.00,,,0.00,VWS V15.00,2013-08-16 15:15:00,
2013-08-16 10:19:00,72.7,59.4,30.14,SW,226,0.0,3.0,63,0.00,,CLR,0.00,VWS V14.01,2013-08-16 15:19:00,
2013-08-16 10:24:00,73.0,60.1,30.14,SW,226,4.0,5.0,64,0.00,,CLR,0.00,VWS V14.01,2013-08-16 15:24:00,
2013-08-16 10:29:00,73.2,59.4,30.14,SW,226,3.0,5.0,62,0.00,,CLR,0.00,VWS V14.01,2013-08-16 15:29:00,
2013-08-16 10:30:00,66.1,58.3,30.15,SW,226,2.0,3.0,76,0.00,,,0.00,VWS V15.00,2013-08-16 15:30:00,
2013-08-16 10:34:00,73.5,59.7,30.14,SW,226,2.0,5.0,62,0.00,,CLR,0.00,VWS V14.01,2013-08-16 15:34:00,
2013-08-16 10:39:00,73.7,59.9,30.14,SW,226,3.0,4.0,62,0.00,,CLR,0.00,VWS V14.01,2013-08-16 15:39:00,
2013-08-16 10:44:00,74.0,59.2,30.14,SW,226,2.0,6.0,60,0.00,,CLR,0.00,VWS V14.01,2013-08-16 15:44:00,
2013-08-16 10:45:00,68.6,60.0,30.15,SW,226,3.0,4.0,74,0.00,,,0.00,VWS V15.00,2013-08-16 15:45:00,
2013-08-16 10:49:00,74.4,60.1,30.14,SW,226,1.0,3.0,61,0.00,,CLR,0.00,VWS V14.01,2013-08-16 15:49:00,
2013-08-16 10:54:00,74.6,60.3,30.14,SW,226,2.0,6.0,61,0.00,,CLR,0.00,VWS V14.01,2013-08-16 15:54:00,
2013-08-16 10:59:00,74.7,60.4,30.14,SW,223,7.0,10.0,61,0.00,,CLR,0.00,VWS V14.01,2013-08-16 15:59:00,
2013-08-16 11:00:00,71.3,60.6,30.14,SW,226,0.0,3.0,69,0.00,,,0.00,VWS V15.00,2013-08-16 16:00:00,
2013-08-16 11:04:00,74.7,59.4,30.14,SW,216,5.0,12.0,59,0.00,,CLR,0.00,VWS V14.01,2013-08-16 16:04:00,
2013-08-16 11:09:00,75.1,59.3,30.14,SW,215,10.0,12.0,58,0.00,,CLR,0.00,VWS V14.01,2013-08-16 16:09:00,
2013-08-16 11:15:00,75.6,60.3,30.14,South,189,9.0,12.0,59,0.00,,CLR,0.00,VWS V14.01,2013-08-16 16:15:00,
2013-08-16 11:20:00,75.8,60.0,30.14,SSW,198,3.0,6.0,58,0.00,,CLR,0.00,VWS V14.01,2013-08-16 16:20:00,
2013-08-16 11:25:00,76.5,60.6,30.14,SSW,203,4.0,10.0,58,0.00,,CLR,0.00,VWS V14.01,2013-08-16 16:25:00,
2013-08-16 11:30:00,76.8,59.9,30.14,SSW,206,5.0,10.0,56,0.00,,CLR,0.00,VWS V14.01,2013-08-16 16:30:00,
2013-08-16 11:35:00,77.0,60.1,30.14,SSW,203,6.0,7.0,56,0.00,,CLR,0.00,VWS V14.01,2013-08-16 16:35:00,
2013-08-16 11:40:00,77.6,60.7,30.14,SW,225,3.0,9.0,56,0.00,,CLR,0.00,VWS V14.01,2013-08-16 16:40:00,
2013-08-16 11:45:00,77.6,61.2,30.14,SSW,204,6.0,10.0,57,0.00,,CLR,0.00,VWS V14.01,2013-08-16 16:45:00,
2013-08-16 11:50:00,77.9,61.5,30.14,SSW,198,12.0,13.0,57,0.00,,CLR,0.00,VWS V14.01,2013-08-16 16:50:00,
2013-08-16 11:55:00,78.3,60.8,30.14,SSW,194,6.0,13.0,55,0.00,,CLR,0.00,VWS V14.01,2013-08-16 16:55:00,
2013-08-16 12:00:00,74.7,59.0,30.14,SSW,212,11.0,11.0,58,0.00,,,0.00,VWS V15.00,2013-08-16 17:00:00,
2013-08-16 12:02:00,78.8,61.3,30.14,SW,221,9.0,17.0,55,0.00,,CLR,0.00,VWS V14.01,2013-08-16 17:02:00,
2013-08-16 12:07:00,78.8,59.2,30.14,South,179,10.0,15.0,51,0.00,,CLR,0.00,VWS V14.01,2013-08-16 17:07:00,
2013-08-16 12:12:00,79.0,61.0,30.14,South,188,6.0,15.0,54,0.00,,CLR,0.00,VWS V14.01,2013-08-16 17:12:00,
2013-08-16 12:15:00,75.8,60.5,30.14,SSW,198,4.0,12.0,59,0.00,,OVC016,0.00,VWS V15.00,2013-08-16 17:15:00,
2013-08-16 12:17:00,80.1,60.9,30.14,WSW,239,12.0,15.0,52,0.00,,CLR,0.00,VWS V14.01,2013-08-16 17:17:00,
2013-08-16 12:22:00,79.9,58.5,30.14,SSW,201,10.0,15.0,48,0.00,,CLR,0.00,VWS V14.01,2013-08-16 17:22:00,
2013-08-16 12:27:00,80.1,57.5,30.14,South,184,5.0,15.0,46,0.00,,CLR,0.00,VWS V14.01,2013-08-16 17:27:00,
2013-08-16 12:30:00,77.0,60.1,30.14,SSW,203,7.0,10.0,56,0.00,,OVC016,0.00,VWS V15.00,2013-08-16 17:30:00,
2013-08-16 12:32:00,80.3,57.7,30.14,SW,230,7.0,15.0,46,0.00,,CLR,0.00,VWS V14.01,2013-08-16 17:32:00,
2013-08-16 12:37:00,79.9,57.9,30.14,SSW,208,5.0,15.0,47,0.00,,CLR,0.00,VWS V14.01,2013-08-16 17:37:00,
2013-08-16 12:42:00,80.5,57.2,30.14,WSW,241,6.0,19.0,45,0.00,,SCT070,0.00,VWS V14.01,2013-08-16 17:42:00,
2013-08-16 12:45:00,77.7,61.8,30.14,SSW,201,2.0,10.0,58,0.00,,,0.00,VWS V15.00,2013-08-16 17:45:00,
2013-08-16 12:47:00,80.1,57.5,30.14,SSW,208,6.0,19.0,46,0.00,,SCT070,0.00,VWS V14.01,2013-08-16 17:47:00,
2013-08-16 12:52:00,78.6,57.9,30.14,WSW,248,9.0,10.0,49,0.00,,BKN070,0.00,VWS V14.01,2013-08-16 17:52:00,
2013-08-16 12:57:00,77.6,58.1,30.14,SW,217,7.0,12.0,51,0.00,,BKN070,0.00,VWS V14.01,2013-08-16 17:57:00,
2013-08-16 13:00:00,79.0,62.0,30.14,South,187,11.0,17.0,56,0.00,,OVC016,0.00,VWS V15.00,2013-08-16 18:00:00,
2013-08-16 13:02:00,77.4,57.9,30.14,West,277,6.0,12.0,51,0.00,,BKN070,0.00,VWS V14.01,2013-08-16 18:02:00,
2013-08-16 13:07:00,76.8,58.4,30.14,West,269,7.0,8.0,53,0.00,,BKN070,0.00,VWS V14.01,2013-08-16 18:07:00,
2013-08-16 13:12:00,77.0,58.0,30.14,SW,220,3.0,13.0,52,0.00,,BKN070,0.00,VWS V14.01,2013-08-16 18:12:00,
2013-08-16 13:15:00,80.3,59.4,30.14,SSW,205,6.0,15.0,49,0.00,,,0.00,VWS V15.00,2013-08-16 18:15:00,
2013-08-16 13:17:00,77.9,57.2,30.14,WSW,253,7.0,13.0,49,0.00,,BKN070,0.00,VWS V14.01,2013-08-16 18:17:00,
2013-08-16 13:23:00,78.6,56.7,30.13,SW,233,12.0,13.0,47,0.00,,BKN070,0.00,VWS V14.01,2013-08-16 18:23:00,
2013-08-16 13:28:00,78.6,56.7,30.13,SW,231,9.0,13.0,47,0.00,,BKN070,0.00,VWS V14.01,2013-08-16 18:28:00,
2013-08-16 13:30:00,79.9,58.5,30.14,WSW,244,1.0,15.0,48,0.00,,,0.00,VWS V15.00,2013-08-16 18:30:00,
2013-08-16 13:33:00,78.6,57.9,30.13,SSW,210,9.0,13.0,49,0.00,,BKN070,0.00,VWS V14.01,2013-08-16 18:33:00,
2013-08-16 13:38:00,80.3,58.8,30.13,SSW,208,0.0,10.0,48,0.00,,BKN070,0.00,VWS V14.01,2013-08-16 18:38:00,
2013-08-16 13:43:00,81.8,57.1,30.13,SW,217,11.0,11.0,43,0.00,,BKN065,0.00,VWS V14.01,2013-08-16 18:43:00,
2013-08-16 13:45:00,79.6,57.6,30.14,WSW,246,8.0,19.0,47,0.00,,,0.00,VWS V15.00,2013-08-16 18:45:00,
2013-08-16 13:48:00,81.8,56.5,30.13,SSW,196,8.0,15.0,42,0.00,,BKN065,0.00,VWS V14.01,2013-08-16 18:48:00,
2013-08-16 13:54:00,81.8,57.1,30.12,SSW,208,11.0,14.0,43,0.00,,BKN060,0.00,VWS V14.01,2013-08-16 18:54:00,
2013-08-16 13:59:00,82.0,57.3,30.12,South,191,13.0,14.0,43,0.00,,BKN060,0.00,VWS V14.01,2013-08-16 18:59:00,
2013-08-16 14:00:00,77.2,58.2,30.14,West,276,5.0,12.0,52,0.00,,,0.00,VWS V15.00,2013-08-16 19:00:00,
2013-08-16 14:04:00,82.0,55.3,30.12,SSW,200,13.0,16.0,40,0.00,,BKN060,0.00,VWS V14.01,2013-08-16 19:04:00,
2013-08-16 14:09:00,81.6,55.6,30.12,SW,222,12.0,14.0,41,0.00,,BKN060,0.00,VWS V14.01,2013-08-16 19:09:00,
2013-08-16 14:14:00,82.6,55.2,30.12,WSW,239,5.0,14.0,39,0.00,,BKN060,0.00,VWS V14.01,2013-08-16 19:14:00,
2013-08-16 14:15:00,78.1,56.8,30.13,WSW,246,4.0,13.0,48,0.00,,,0.00,VWS V15.00,2013-08-16 19:15:00,
2013-08-16 14:19:00,82.6,55.9,30.12,SW,222,4.0,17.0,40,0.00,,BKN060,0.00,VWS V14.01,2013-08-16 19:19:00,
2013-08-16 14:24:00,82.8,56.7,30.12,SW,225,6.0,12.0,41,0.00,,BKN060,0.00,VWS V14.01,2013-08-16 19:24:00,
2013-08-16 14:29:00,82.6,55.9,30.12,WSW,239,3.0,12.0,40,0.00,,BKN060,0.00,VWS V14.01,2013-08-16 19:29:00,
2013-08-16 14:30:00,79.0,58.2,30.13,SSW,210,8.0,13.0,49,0.00,,,0.00,VWS V15.00,2013-08-16 19:30:00,
2013-08-16 14:34:00,81.8,56.5,30.11,SSE,168,12.0,13.0,42,0.00,,BKN060,0.00,VWS V14.01,2013-08-16 19:34:00,
2013-08-16 14:39:00,82.4,55.0,30.11,SW,227,9.0,19.0,39,0.00,,BKN060,0.00,VWS V14.01,2013-08-16 19:39:00,
2013-08-16 14:44:00,81.8,53.0,30.11,SSW,206,9.0,19.0,37,0.00,,SCT060,0.00,VWS V14.01,2013-08-16 19:44:00,
2013-08-16 14:45:00,81.8,57.8,30.12,SW,229,12.0,17.0,44,0.00,,,0.00,VWS V15.00,2013-08-16 19:45:00,
2013-08-16 14:49:00,82.6,55.2,30.11,SSW,192,6.0,19.0,39,0.00,,SCT060,0.00,VWS V14.01,2013-08-16 19:49:00,
2013-08-16 14:54:00,83.4,55.2,30.11,SSE,166,11.0,15.0,38,0.00,,SCT050,0.00,VWS V14.01,2013-08-16 19:54:00,
2013-08-16 14:59:00,83.0,55.5,30.11,South,185,2.0,15.0,39,0.00,,SCT050,0.00,VWS V14.01,2013-08-16 19:59:00,
2013-08-16 15:00:00,82.2,55.5,30.12,SSW,197,6.0,16.0,40,0.00,,,0.00,VWS V15.00,2013-08-16 20:00:00,
2013-08-16 15:04:00,84.0,55.7,30.10,SSW,205,6.0,15.0,38,0.00,,SCT050,0.00,VWS V14.01,2013-08-16 20:04:00,
2013-08-16 15:09:00,83.8,54.8,30.10,SSW,196,9.0,19.0,37,0.00,,SCT050,0.00,VWS V14.01,2013-08-16 20:09:00,
2013-08-16 15:14:00,83.0,55.5,30.10,South,180,5.0,19.0,39,0.00,,SCT050,0.00,VWS V14.01,2013-08-16 20:14:00,
2013-08-16 15:15:00,82.6,55.2,30.12,SW,222,5.0,17.0,39,0.00,,,0.00,VWS V15.00,2013-08-16 20:15:00,
2013-08-16 15:19:00,83.8,54.8,30.11,SW,227,9.0,9.0,37,0.00,,SCT050,0.00,VWS V14.01,2013-08-16 20:19:00,
2013-08-16 15:24:00,83.8,54.8,30.11,South,186,3.0,12.0,37,0.00,,SCT050,0.00,VWS V14.01,2013-08-16 20:24:00,
2013-08-16 15:29:00,84.3,56.0,30.11,SSW,213,5.0,12.0,38,0.00,,SCT050,0.00,VWS V14.01,2013-08-16 20:29:00,
2013-08-16 15:30:00,81.8,56.5,30.11,South,175,6.0,13.0,42,0.00,,,0.00,VWS V15.00,2013-08-16 20:30:00,
2013-08-16 15:34:00,84.5,55.4,30.11,WSW,244,11.0,13.0,37,0.00,,SCT050,0.00,VWS V14.01,2013-08-16 20:34:00,
2013-08-16 15:39:00,83.6,55.3,30.11,SSW,206,7.0,14.0,38,0.00,,SCT050,0.00,VWS V14.01,2013-08-16 20:39:00,
2013-08-16 15:44:00,84.0,55.7,30.11,SW,218,9.0,14.0,38,0.00,,CLR,0.00,VWS V14.01,2013-08-16 20:44:00,
2013-08-16 15:45:00,82.6,55.2,30.11,SSW,192,5.0,19.0,39,0.00,,,0.00,VWS V15.00,2013-08-16 20:45:00,
2013-08-16 15:49:00,83.8,55.5,30.11,SW,233,7.0,10.0,38,0.00,,CLR,0.00,VWS V14.01,2013-08-16 20:49:00,
2013-08-16 15:55:00,83.6,56.8,30.11,SW,233,3.0,11.0,40,0.00,,SCT055,0.00,VWS V14.01,2013-08-16 20:55:00,
2013-08-16 16:00:00,82.8,54.6,30.11,South,182,10.0,15.0,38,0.00,,SCT055,0.00,VWS V14.01,2013-08-16 21:00:00,
2013-08-16 16:05:00,82.4,54.3,30.11,SSW,200,12.0,12.0,38,0.00,,SCT055,0.00,VWS V14.01,2013-08-16 21:05:00,
2013-08-16 16:10:00,82.4,54.3,30.11,SSW,204,15.0,15.0,38,0.00,,SCT055,0.00,VWS V14.01,2013-08-16 21:10:00,
2013-08-16 16:15:00,82.6,56.5,30.11,South,189,14.0,15.0,41,0.00,,SCT055,0.00,VWS V14.01,2013-08-16 21:15:00,
2013-08-16 16:20:00,82.2,56.2,30.11,SSW,198,9.0,11.0,41,0.00,,SCT055,0.00,VWS V14.01,2013-08-16 21:20:00,
2013-08-16 16:25:00,81.1,56.5,30.11,SW,216,3.0,14.0,43,0.00,,SCT055,0.00,VWS V14.01,2013-08-16 21:25:00,
2013-08-16 16:30:00,81.2,55.3,30.11,SW,221,4.0,14.0,41,0.00,,SCT055,0.00,VWS V14.01,2013-08-16 21:30:00,
2013-08-16 16:35:00,81.4,55.5,30.11,SSW,203,12.0,13.0,41,0.00,,SCT055,0.00,VWS V14.01,2013-08-16 21:35:00,
2013-08-16 16:40:00,81.6,55.0,30.11,SSW,201,13.0,16.0,40,0.00,,SCT055,0.00,VWS V14.01,2013-08-16 21:40:00,
2013-08-16 16:45:00,83.8,55.5,30.11,SW,231,9.0,14.0,38,0.00,,,0.00,VWS V15.00,2013-08-16 21:45:00,
2013-08-16 16:46:00,81.8,55.1,30.11,SSW,198,10.0,16.0,40,0.00,,SCT055,0.00,VWS V14.01,2013-08-16 21:46:00,
2013-08-16 16:51:00,82.0,55.3,30.11,SSW,208,6.0,10.0,40,0.00,,SCT055,0.00,VWS V14.01,2013-08-16 21:51:00,
2013-08-16 16:56:00,82.4,55.0,30.11,SW,224,9.0,11.0,39,0.00,,SCT055,0.00,VWS V14.01,2013-08-16 21:56:00,
2013-08-16 17:00:00,82.4,54.3,30.11,SSW,195,11.0,15.0,38,0.00,,,0.00,VWS V15.00,2013-08-16 22:00:00,
2013-08-16 17:01:00,82.0,55.3,30.11,SSW,193,9.0,16.0,40,0.00,,SCT055,0.00,VWS V14.01,2013-08-16 22:01:00,
2013-08-16 17:06:00,81.6,55.0,30.11,WSW,237,6.0,10.0,40,0.00,,SCT055,0.00,VWS V14.01,2013-08-16 22:06:00,
2013-08-16 17:11:00,81.1,55.2,30.11,SSW,213,9.0,13.0,41,0.00,,SCT055,0.00,VWS V14.01,2013-08-16 22:11:00,
2013-08-16 17:15:00,82.2,55.5,30.11,SSW,206,10.0,15.0,40,0.00,,,0.00,VWS V15.00,2013-08-16 22:15:00,
2013-08-16 17:16:00,80.3,54.5,30.11,SSW,208,11.0,13.0,41,0.00,,SCT055,0.00,VWS V14.01,2013-08-16 22:16:00,
2013-08-16 17:21:00,79.6,55.8,30.11,SSW,208,7.0,10.0,44,0.00,,SCT055,0.00,VWS V14.01,2013-08-16 22:21:00,
2013-08-16 17:26:00,79.6,55.8,30.11,SSW,203,5.0,13.0,44,0.00,,SCT055,0.00,VWS V14.01,2013-08-16 22:26:00,
2013-08-16 17:30:00,81.4,55.5,30.11,SSW,198,3.0,14.0,41,0.00,,,0.00,VWS V15.00,2013-08-16 22:30:00,
2013-08-16 17:31:00,79.6,56.4,30.11,SSW,202,16.0,16.0,45,0.00,,SCT055,0.00,VWS V14.01,2013-08-16 22:31:00,
2013-08-16 17:36:00,79.6,56.4,30.12,SSW,213,10.0,13.0,45,0.00,,SCT055,0.00,VWS V14.01,2013-08-16 22:36:00,
2013-08-16 17:41:00,79.4,55.6,30.12,SSW,198,6.0,13.0,44,0.00,,SCT070,0.00,VWS V14.01,2013-08-16 22:41:00,
2013-08-16 17:45:00,82.0,55.3,30.11,SSW,206,10.0,16.0,40,0.00,,,0.00,VWS V15.00,2013-08-16 22:45:00,
2013-08-16 17:46:00,79.4,56.2,30.12,South,177,8.0,14.0,45,0.00,,SCT070,0.00,VWS V14.01,2013-08-16 22:46:00,
2013-08-16 17:51:00,79.6,57.0,30.12,SSW,210,14.0,14.0,46,0.00,,SCT070,0.00,VWS V14.01,2013-08-16 22:51:00,
2013-08-16 17:56:00,79.6,55.8,30.12,SSW,200,10.0,14.0,44,0.00,,SCT070,0.00,VWS V14.01,2013-08-16 22:56:00,
2013-08-16 18:00:00,81.8,55.1,30.11,WSW,245,7.0,16.0,40,0.00,,,0.00,VWS V15.00,2013-08-16 23:00:00,
2013-08-16 18:02:00,79.8,56.0,30.12,SSW,213,6.0,14.0,44,0.00,,CLR,0.00,VWS V14.01,2013-08-16 23:02:00,
2013-08-16 18:07:00,79.8,56.6,30.12,SW,227,7.0,11.0,45,0.00,,CLR,0.00,VWS V14.01,2013-08-16 23:07:00,
2013-08-16 18:12:00,79.9,55.4,30.12,SW,236,3.0,12.0,43,0.00,,CLR,0.00,VWS V14.01,2013-08-16 23:12:00,
2013-08-16 18:15:00,79.6,55.2,30.11,SSW,208,6.0,13.0,43,0.00,,,0.00,VWS V15.00,2013-08-16 23:15:00,
2013-08-16 18:17:00,79.2,54.8,30.12,SSW,204,6.0,12.0,43,0.00,,CLR,0.00,VWS V14.01,2013-08-16 23:17:00,
2013-08-16 18:22:00,78.8,55.1,30.12,SSW,209,10.0,13.0,44,0.00,,CLR,0.00,VWS V14.01,2013-08-16 23:22:00,
2013-08-16 18:27:00,78.6,55.5,30.12,SSW,211,6.0,13.0,45,0.00,,CLR,0.00,VWS V14.01,2013-08-16 23:27:00,
2013-08-16 18:30:00,79.6,55.8,30.12,SSW,196,10.0,16.0,44,0.00,,,0.00,VWS V15.00,2013-08-16 23:30:00,
2013-08-16 18:33:00,78.5,55.4,30.12,SW,227,6.0,13.0,45,0.00,,CLR,0.00,VWS V14.01,2013-08-16 23:33:00,
2013-08-16 18:38:00,78.5,54.8,30.12,SW,230,9.0,10.0,44,0.00,,CLR,0.00,VWS V14.01,2013-08-16 23:38:00,
2013-08-16 18:43:00,78.5,56.0,30.12,SW,228,5.0,10.0,46,0.00,,CLR,0.00,VWS V14.01,2013-08-16 23:43:00,
2013-08-16 18:45:00,79.4,56.2,30.12,SSW,199,10.0,14.0,45,0.00,,,0.00,VWS V15.00,2013-08-16 23:45:00,
2013-08-16 18:48:00,78.3,55.2,30.12,SW,218,8.0,12.0,45,0.00,,CLR,0.00,VWS V14.01,2013-08-16 23:48:00,
2013-08-16 18:53:00,77.9,54.9,30.12,SW,222,5.0,10.0,45,0.00,,CLR,0.00,VWS V14.01,2013-08-16 23:53:00,
2013-08-16 18:58:00,77.6,55.8,30.12,SW,226,4.0,10.0,47,0.00,,CLR,0.00,VWS V14.01,2013-08-16 23:58:00,
2013-08-16 19:00:00,79.6,56.4,30.12,SSW,206,5.0,14.0,45,0.00,,,0.00,VWS V15.00,2013-08-17 00:00:00,
2013-08-16 19:03:00,77.0,55.8,30.12,SW,220,4.0,10.0,48,0.00,,CLR,0.00,VWS V14.01,2013-08-17 00:03:00,
2013-08-16 19:08:00,76.3,56.3,30.12,SW,219,5.0,7.0,50,0.00,,CLR,0.00,VWS V14.01,2013-08-17 00:08:00,
2013-08-16 19:13:00,75.8,56.4,30.12,SW,218,3.0,10.0,51,0.00,,CLR,0.00,VWS V14.01,2013-08-17 00:13:00,
2013-08-16 19:15:00,79.0,55.2,30.12,SSW,204,5.0,12.0,44,0.00,,,0.00,VWS V15.00,2013-08-17 00:15:00,
2013-08-16 19:18:00,75.3,56.5,30.12,SW,218,5.0,10.0,52,0.00,,CLR,0.00,VWS V14.01,2013-08-17 00:18:00,
2013-08-16 19:23:00,74.9,56.6,30.12,SW,218,4.0,6.0,53,0.00,,CLR,0.00,VWS V14.01,2013-08-17 00:23:00,
2013-08-16 19:28:00,74.4,56.7,30.12,SW,218,6.0,6.0,54,0.00,,CLR,0.00,VWS V14.01,2013-08-17 00:28:00,
2013-08-16 19:30:00,78.5,54.8,30.12,SW,220,6.0,13.0,44,0.00,,,0.00,VWS V15.00,2013-08-17 00:30:00,
2013-08-16 19:33:00,74.0,56.3,30.12,SW,218,5.0,7.0,54,0.00,,CLR,0.00,VWS V14.01,2013-08-17 00:33:00,
2013-08-16 19:38:00,73.5,56.4,30.12,SW,218,4.0,6.0,55,0.00,,CLR,0.00,VWS V14.01,2013-08-17 00:38:00,
2013-08-16 19:44:00,73.0,56.4,30.12,SW,218,5.0,6.0,56,0.00,,CLR,0.00,VWS V14.01,2013-08-17 00:44:00,
2013-08-16 19:45:00,78.3,55.2,30.12,SW,218,6.0,12.0,45,0.00,,,0.00,VWS V15.00,2013-08-17 00:45:00,
2013-08-16 19:49:00,72.7,56.6,30.12,SW,218,4.0,6.0,57,0.00,,CLR,0.00,VWS V14.01,2013-08-17 00:49:00,
2013-08-16 19:54:00,72.0,56.9,30.12,SW,218,3.0,5.0,59,0.00,,CLR,0.00,VWS V14.01,2013-08-17 00:54:00,
2013-08-16 19:59:00,71.6,57.0,30.12,SW,218,3.0,5.0,60,0.00,,CLR,0.00,VWS V14.01,2013-08-17 00:59:00,
2013-08-16 20:00:00,76.8,55.7,30.12,SW,220,6.0,10.0,48,0.00,,,0.00,VWS V15.00,2013-08-17 01:00:00,
2013-08-16 20:04:00,71.1,56.5,30.12,SW,218,4.0,5.0,60,0.00,,CLR,0.00,VWS V14.01,2013-08-17 01:04:00,
2013-08-16 20:09:00,70.6,56.5,30.12,SW,218,4.0,5.0,61,0.00,,CLR,0.00,VWS V14.01,2013-08-17 01:09:00,
2013-08-16 20:14:00,70.3,56.7,30.12,SW,218,4.0,5.0,62,0.00,,CLR,0.00,VWS V14.01,2013-08-17 01:14:00,
2013-08-16 20:15:00,75.3,55.9,30.12,SW,218,6.0,10.0,51,0.00,,,0.00,VWS V15.00,2013-08-17 01:15:00,
2013-08-16 20:19:00,69.6,56.5,30.12,SW,218,4.0,5.0,63,0.00,,CLR,0.00,VWS V14.01,2013-08-17 01:19:00,
2013-08-16 20:24:00,69.1,56.8,30.12,SW,218,4.0,5.0,65,0.00,,CLR,0.00,VWS V14.01,2013-08-17 01:24:00,
2013-08-16 20:29:00,68.4,56.6,30.12,SW,218,5.0,5.0,66,0.00,,CLR,0.00,VWS V14.01,2013-08-17 01:29:00,
2013-08-16 20:30:00,73.9,56.2,30.12,SW,218,4.0,7.0,54,0.00,,,0.00,VWS V15.00,2013-08-17 01:30:00,
2013-08-16 20:34:00,68.1,57.2,30.12,SW,218,4.0,5.0,68,0.00,,CLR,0.00,VWS V14.01,2013-08-17 01:34:00,
2013-08-16 20:39:00,67.6,57.1,30.12,SW,218,5.0,5.0,69,0.00,,CLR,0.00,VWS V14.01,2013-08-17 01:39:00,
2013-08-16 20:44:00,67.3,57.2,30.12,SW,218,5.0,5.0,70,0.00,,CLR,0.00,VWS V14.01,2013-08-17 01:44:00,
2013-08-16 20:45:00,72.5,56.9,30.12,SW,218,4.0,6.0,58,0.00,,,0.00,VWS V15.00,2013-08-17 01:45:00,
2013-08-16 20:49:00,66.9,57.2,30.12,SW,218,5.0,5.0,71,0.00,,CLR,0.00,VWS V14.01,2013-08-17 01:49:00,
2013-08-16 20:54:00,66.6,57.3,30.12,SW,218,5.0,5.0,72,0.00,,CLR,0.00,VWS V14.01,2013-08-17 01:54:00,
2013-08-16 20:59:00,66.3,57.0,30.12,SW,218,5.0,5.0,72,0.00,,CLR,0.00,VWS V14.01,2013-08-17 01:59:00,
2013-08-16 21:00:00,71.1,56.5,30.12,SW,218,4.0,5.0,60,0.00,,,0.00,VWS V15.00,2013-08-17 02:00:00,
2013-08-16 21:04:00,66.0,57.1,30.13,SW,218,5.0,6.0,73,0.00,,CLR,0.00,VWS V14.01,2013-08-17 02:04:00,
2013-08-16 21:09:00,65.6,57.1,30.13,SW,218,5.0,5.0,74,0.00,,CLR,0.00,VWS V14.01,2013-08-17 02:09:00,
2013-08-16 21:14:00,65.3,56.8,30.13,SW,218,4.0,5.0,74,0.00,,CLR,0.00,VWS V14.01,2013-08-17 02:14:00,
2013-08-16 21:15:00,69.6,56.5,30.12,SW,218,3.0,5.0,63,0.00,,,0.00,VWS V15.00,2013-08-17 02:15:00,
2013-08-16 21:19:00,65.2,56.7,30.12,SW,218,4.0,4.0,74,0.00,,CLR,0.00,VWS V14.01,2013-08-17 02:19:00,
2013-08-16 21:24:00,65.0,56.5,30.12,SW,218,5.0,5.0,74,0.00,,CLR,0.00,VWS V14.01,2013-08-17 02:24:00,
2013-08-16 21:29:00,64.7,56.2,30.12,SW,218,5.0,5.0,74,0.00,,CLR,0.00,VWS V14.01,2013-08-17 02:29:00,
2013-08-16 21:30:00,68.1,57.2,30.12,SW,218,4.0,5.0,68,0.00,,,0.00,VWS V15.00,2013-08-17 02:30:00,
2013-08-16 21:34:00,64.3,56.2,30.13,SW,218,4.0,4.0,75,0.00,,CLR,0.00,VWS V14.01,2013-08-17 02:34:00,
2013-08-16 21:39:00,64.2,56.5,30.13,SW,218,4.0,5.0,76,0.00,,CLR,0.00,VWS V14.01,2013-08-17 02:39:00,
2013-08-16 21:44:00,63.9,56.2,30.13,SW,218,4.0,5.0,76,0.00,,CLR,0.00,VWS V14.01,2013-08-17 02:44:00,
2013-08-16 21:45:00,66.9,57.2,30.12,SW,218,5.0,5.0,71,0.00,,,0.00,VWS V15.00,2013-08-17 02:45:00,
2013-08-16 21:49:00,63.7,56.4,30.14,SW,218,4.0,4.0,77,0.00,,CLR,0.00,VWS V14.01,2013-08-17 02:49:00,
2013-08-16 21:54:00,63.5,55.8,30.14,SW,218,4.0,5.0,76,0.00,,CLR,0.00,VWS V14.01,2013-08-17 02:54:00,
2013-08-16 21:59:00,62.7,55.4,30.14,SW,218,4.0,5.0,77,0.00,,CLR,0.00,VWS V14.01,2013-08-17 02:59:00,
2013-08-16 22:00:00,66.0,57.1,30.13,SW,218,5.0,6.0,73,0.00,,,0.00,VWS V15.00,2013-08-17 03:00:00,
2013-08-16 22:04:00,62.1,55.9,30.14,SW,218,4.0,4.0,80,0.00,,CLR,0.00,VWS V14.01,2013-08-17 03:04:00,
2013-08-16 22:09:00,61.8,55.9,30.14,SW,218,5.0,5.0,81,0.00,,CLR,0.00,VWS V14.01,2013-08-17 03:09:00,
2013-08-16 22:14:00,61.6,55.7,30.14,SW,218,4.0,5.0,81,0.00,,CLR,0.00,VWS V14.01,2013-08-17 03:14:00,
2013-08-16 22:15:00,65.2,56.7,30.12,SW,218,4.0,5.0,74,0.00,,,0.00,VWS V15.00,2013-08-17 03:15:00,
2013-08-16 22:20:00,61.6,55.7,30.14,SW,218,5.0,5.0,81,0.00,,CLR,0.00,VWS V14.01,2013-08-17 03:20:00,
2013-08-16 22:25:00,61.3,55.4,30.14,SW,218,5.0,6.0,81,0.00,,CLR,0.00,VWS V14.01,2013-08-17 03:25:00,
2013-08-16 22:30:00,61.2,55.3,30.14,SW,218,5.0,6.0,81,0.00,,CLR,0.00,VWS V14.01,2013-08-17 03:30:00,
2013-08-16 22:35:00,61.3,55.4,30.14,SW,218,5.0,5.0,81,0.00,,CLR,0.00,VWS V14.01,2013-08-17 03:35:00,
2013-08-16 22:40:00,61.3,55.1,30.14,SW,218,5.0,6.0,80,0.00,,SCT120,0.00,VWS V14.01,2013-08-17 03:40:00,
2013-08-16 22:45:00,61.2,55.0,30.14,SW,218,6.0,6.0,80,0.00,,SCT120,0.00,VWS V14.01,2013-08-17 03:45:00,
2013-08-16 22:50:00,61.2,54.6,30.14,SW,218,5.0,6.0,79,0.00,,SCT120,0.00,VWS V14.01,2013-08-17 03:50:00,
2013-08-16 22:55:00,61.2,54.6,30.14,SW,218,6.0,6.0,79,0.00,,SCT120,0.00,VWS V14.01,2013-08-17 03:55:00,
2013-08-16 23:00:00,61.3,54.7,30.14,SW,218,5.0,6.0,79,0.00,,SCT120,0.00,VWS V14.01,2013-08-17 04:00:00,
2013-08-16 23:01:00,61.3,54.7,30.14,SW,218,5.0,6.0,79,0.00,,SCT120,0.00,VWS V14.01,2013-08-17 04:01:00,
2013-08-16 23:02:00,61.2,54.3,30.14,SW,218,5.0,6.0,78,0.00,,SCT120,0.00,VWS V14.01,2013-08-17 04:02:00,
2013-08-16 23:04:00,61.2,54.3,30.14,SW,218,5.0,6.0,78,0.00,,SCT120,0.00,VWS V14.01,2013-08-17 04:04:00,
2013-08-16 23:05:00,61.2,54.3,30.14,SW,218,6.0,6.0,78,0.00,,SCT120,0.00,VWS V14.01,2013-08-17 04:05:00,
2013-08-16 23:08:00,61.0,54.5,30.14,SW,218,5.0,6.0,79,0.00,,SCT120,0.00,VWS V14.01,2013-08-17 04:08:00,
2013-08-16 23:13:00,60.9,54.3,30.14,SW,218,5.0,6.0,79,0.00,,SCT120,0.00,VWS V14.01,2013-08-17 04:13:00,
2013-08-16 23:15:00,61.6,55.7,30.14,SW,218,5.0,5.0,81,0.00,,,0.00,VWS V15.00,2013-08-17 04:15:00,
2013-08-16 23:18:00,60.9,54.3,30.14,SW,218,5.0,6.0,79,0.00,,SCT120,0.00,VWS V14.01,2013-08-17 04:18:00,
2013-08-16 23:23:00,60.7,54.2,30.13,SW,218,5.0,6.0,79,0.00,,SCT120,0.00,VWS V14.01,2013-08-17 04:23:00,
2013-08-16 23:28:00,60.7,54.2,30.13,SW,218,5.0,6.0,79,0.00,,SCT120,0.00,VWS V14.01,2013-08-17 04:28:00,
2013-08-16 23:30:00,61.3,55.4,30.14,SW,218,4.0,6.0,81,0.00,,,0.00,VWS V15.00,2013-08-17 04:30:00,
2013-08-16 23:33:00,60.7,54.2,30.13,SW,218,5.0,6.0,79,0.00,,SCT120,0.00,VWS V14.01,2013-08-17 04:33:00,
2013-08-16 23:38:00,60.7,54.2,30.13,SW,218,5.0,6.0,79,0.00,,SCT120,0.00,VWS V14.01,2013-08-17 04:38:00,
2013-08-16 23:43:00,60.7,54.2,30.13,SW,218,5.0,6.0,79,0.00,,BKN110,0.00,VWS V14.01,2013-08-17 04:43:00,
2013-08-16 23:45:00,61.2,55.0,30.14,SW,218,6.0,6.0,80,0.00,,,0.00,VWS V15.00,2013-08-17 04:45:00,
2013-08-16 23:48:00,60.5,54.0,30.13,SW,218,5.0,6.0,79,0.00,,BKN110,0.00,VWS V14.01,2013-08-17 04:48:00,
2013-08-16 23:53:00,60.1,53.2,30.13,SW,218,5.0,6.0,78,0.00,,BKN110,0.00,VWS V14.01,2013-08-17 04:53:00,
2013-08-16 23:58:00,59.9,53.7,30.13,SW,218,6.0,6.0,80,0.00,,BKN110,0.00,VWS V14.01,2013-08-17 04:58:00,